sensor_id;sensor_type;location;lat;lon;timestamp;temperature;humidity
7700;DHT22;3892;47.794;19.126;2023-05-16T00:00:09;21.00;47.10
7700;DHT22;3892;47.794;19.126;2023-05-16T00:02:38;21.00;47.00
7700;DHT22;3892;47.794;19.126;2023-05-16T00:05:06;21.00;47.10
7700;DHT22;3892;47.794;19.126;2023-05-16T00:07:36;21.00;47.20
7700;DHT22;3892;47.794;19.126;2023-05-16T00:10:05;21.00;47.20
7700;DHT22;3892;47.794;19.126;2023-05-16T00:12:33;21.00;47.20
7700;DHT22;3892;47.794;19.126;2023-05-16T00:15:02;21.00;47.20
7700;DHT22;3892;47.794;19.126;2023-05-16T00:17:32;21.00;47.80
7700;DHT22;3892;47.794;19.126;2023-05-16T00:20:01;21.00;47.30
7700;DHT22;3892;47.794;19.126;2023-05-16T00:22:37;21.00;47.30
7700;DHT22;3892;47.794;19.126;2023-05-16T00:25:05;21.00;47.30
7700;DHT22;3892;47.794;19.126;2023-05-16T00:27:35;21.00;47.40
7700;DHT22;3892;47.794;19.126;2023-05-16T00:30:03;21.00;47.50
7700;DHT22;3892;47.794;19.126;2023-05-16T00:32:35;21.00;47.40
7700;DHT22;3892;47.794;19.126;2023-05-16T00:35:04;21.00;47.90
7700;DHT22;3892;47.794;19.126;2023-05-16T00:37:32;21.00;47.40
7700;DHT22;3892;47.794;19.126;2023-05-16T00:40:00;21.00;47.20
7700;DHT22;3892;47.794;19.126;2023-05-16T00:42:28;21.00;47.20
7700;DHT22;3892;47.794;19.126;2023-05-16T00:44:57;21.00;47.30
7700;DHT22;3892;47.794;19.126;2023-05-16T00:47:25;21.00;47.50
7700;DHT22;3892;47.794;19.126;2023-05-16T00:49:54;21.00;47.50
7700;DHT22;3892;47.794;19.126;2023-05-16T00:52:23;21.00;47.60
7700;DHT22;3892;47.794;19.126;2023-05-16T00:54:51;21.00;47.60
7700;DHT22;3892;47.794;19.126;2023-05-16T00:57:19;20.90;47.50
7700;DHT22;3892;47.794;19.126;2023-05-16T00:59:48;20.90;47.40
7700;DHT22;3892;47.794;19.126;2023-05-16T01:02:16;20.90;47.10
7700;DHT22;3892;47.794;19.126;2023-05-16T01:04:45;20.90;47.50
7700;DHT22;3892;47.794;19.126;2023-05-16T01:07:16;20.90;47.30
7700;DHT22;3892;47.794;19.126;2023-05-16T01:09:45;20.80;47.30
7700;DHT22;3892;47.794;19.126;2023-05-16T01:12:16;20.80;47.50
7700;DHT22;3892;47.794;19.126;2023-05-16T01:14:53;20.90;47.60
7700;DHT22;3892;47.794;19.126;2023-05-16T01:17:37;20.80;47.60
7700;DHT22;3892;47.794;19.126;2023-05-16T01:20:14;20.90;47.70
7700;DHT22;3892;47.794;19.126;2023-05-16T01:23:03;20.80;47.50
7700;DHT22;3892;47.794;19.126;2023-05-16T01:25:55;20.90;47.70
7700;DHT22;3892;47.794;19.126;2023-05-16T01:28:26;20.80;47.70
7700;DHT22;3892;47.794;19.126;2023-05-16T01:30:55;20.80;47.70
7700;DHT22;3892;47.794;19.126;2023-05-16T01:33:23;20.90;47.90
7700;DHT22;3892;47.794;19.126;2023-05-16T01:35:59;20.80;47.80
7700;DHT22;3892;47.794;19.126;2023-05-16T01:38:34;20.80;47.90
7700;DHT22;3892;47.794;19.126;2023-05-16T01:41:09;20.80;48.00
7700;DHT22;3892;47.794;19.126;2023-05-16T01:43:43;20.70;48.00
7700;DHT22;3892;47.794;19.126;2023-05-16T01:46:13;20.70;47.70
7700;DHT22;3892;47.794;19.126;2023-05-16T01:48:47;20.70;47.70
7700;DHT22;3892;47.794;19.126;2023-05-16T01:51:20;20.70;47.80
7700;DHT22;3892;47.794;19.126;2023-05-16T01:53:49;20.70;47.70
7700;DHT22;3892;47.794;19.126;2023-05-16T01:56:20;20.70;47.70
7700;DHT22;3892;47.794;19.126;2023-05-16T01:58:51;20.70;47.70
7700;DHT22;3892;47.794;19.126;2023-05-16T02:01:20;20.70;47.80
7700;DHT22;3892;47.794;19.126;2023-05-16T02:03:48;20.70;47.90
7700;DHT22;3892;47.794;19.126;2023-05-16T02:06:16;20.80;48.30
7700;DHT22;3892;47.794;19.126;2023-05-16T02:08:44;20.70;48.00
7700;DHT22;3892;47.794;19.126;2023-05-16T02:11:13;20.80;48.10
7700;DHT22;3892;47.794;19.126;2023-05-16T02:13:41;20.80;48.20
7700;DHT22;3892;47.794;19.126;2023-05-16T02:16:11;20.80;48.20
7700;DHT22;3892;47.794;19.126;2023-05-16T02:18:39;20.80;48.10
7700;DHT22;3892;47.794;19.126;2023-05-16T02:21:07;20.80;48.10
7700;DHT22;3892;47.794;19.126;2023-05-16T02:23:35;20.80;48.20
7700;DHT22;3892;47.794;19.126;2023-05-16T02:26:03;20.80;48.20
7700;DHT22;3892;47.794;19.126;2023-05-16T02:28:32;20.80;48.20
7700;DHT22;3892;47.794;19.126;2023-05-16T02:31:00;20.90;48.20
7700;DHT22;3892;47.794;19.126;2023-05-16T02:33:30;20.80;48.00
7700;DHT22;3892;47.794;19.126;2023-05-16T02:35:58;20.80;48.00
7700;DHT22;3892;47.794;19.126;2023-05-16T02:38:26;20.90;48.10
7700;DHT22;3892;47.794;19.126;2023-05-16T02:40:54;20.80;48.00
7700;DHT22;3892;47.794;19.126;2023-05-16T02:43:22;20.80;48.00
7700;DHT22;3892;47.794;19.126;2023-05-16T02:45:50;20.90;48.60
7700;DHT22;3892;47.794;19.126;2023-05-16T02:48:18;20.80;47.90
7700;DHT22;3892;47.794;19.126;2023-05-16T02:50:48;20.80;47.90
7700;DHT22;3892;47.794;19.126;2023-05-16T02:53:16;20.80;47.90
7700;DHT22;3892;47.794;19.126;2023-05-16T02:55:44;20.70;47.90
7700;DHT22;3892;47.794;19.126;2023-05-16T02:58:12;20.70;48.00
7700;DHT22;3892;47.794;19.126;2023-05-16T03:00:40;20.70;48.00
7700;DHT22;3892;47.794;19.126;2023-05-16T03:03:08;20.70;48.20
7700;DHT22;3892;47.794;19.126;2023-05-16T03:05:37;20.70;48.20
7700;DHT22;3892;47.794;19.126;2023-05-16T03:08:06;20.60;48.20
7700;DHT22;3892;47.794;19.126;2023-05-16T03:10:34;20.60;48.30
7700;DHT22;3892;47.794;19.126;2023-05-16T03:13:02;20.50;48.50
7700;DHT22;3892;47.794;19.126;2023-05-16T03:15:30;20.50;48.50
7700;DHT22;3892;47.794;19.126;2023-05-16T03:17:58;20.40;48.10
7700;DHT22;3892;47.794;19.126;2023-05-16T03:20:26;20.40;48.20
7700;DHT22;3892;47.794;19.126;2023-05-16T03:22:54;20.40;48.10
7700;DHT22;3892;47.794;19.126;2023-05-16T03:25:24;20.40;48.40
7700;DHT22;3892;47.794;19.126;2023-05-16T03:27:52;20.30;48.30
7700;DHT22;3892;47.794;19.126;2023-05-16T03:30:21;20.30;48.30
7700;DHT22;3892;47.794;19.126;2023-05-16T03:32:49;20.30;48.30
7700;DHT22;3892;47.794;19.126;2023-05-16T03:35:17;20.30;48.40
7700;DHT22;3892;47.794;19.126;2023-05-16T03:37:45;20.40;48.40
7700;DHT22;3892;47.794;19.126;2023-05-16T03:40:13;20.40;48.50
7700;DHT22;3892;47.794;19.126;2023-05-16T03:42:43;20.40;48.50
7700;DHT22;3892;47.794;19.126;2023-05-16T03:45:11;20.40;48.40
7700;DHT22;3892;47.794;19.126;2023-05-16T03:47:39;20.50;48.60
7700;DHT22;3892;47.794;19.126;2023-05-16T03:50:08;20.50;48.60
7700;DHT22;3892;47.794;19.126;2023-05-16T03:52:36;20.40;48.30
7700;DHT22;3892;47.794;19.126;2023-05-16T03:55:05;20.40;48.30
7700;DHT22;3892;47.794;19.126;2023-05-16T03:57:36;20.40;48.30
7700;DHT22;3892;47.794;19.126;2023-05-16T04:00:08;20.50;48.40
7700;DHT22;3892;47.794;19.126;2023-05-16T04:02:37;20.50;48.50
7700;DHT22;3892;47.794;19.126;2023-05-16T04:05:07;20.50;48.50
7700;DHT22;3892;47.794;19.126;2023-05-16T04:07:36;20.50;48.50
7700;DHT22;3892;47.794;19.126;2023-05-16T04:10:05;20.50;48.60
7700;DHT22;3892;47.794;19.126;2023-05-16T04:12:33;20.50;48.70
7700;DHT22;3892;47.794;19.126;2023-05-16T04:15:01;20.50;48.70
7700;DHT22;3892;47.794;19.126;2023-05-16T04:17:31;20.60;48.80
7700;DHT22;3892;47.794;19.126;2023-05-16T04:19:59;20.60;48.80
7700;DHT22;3892;47.794;19.126;2023-05-16T04:22:27;20.60;48.70
7700;DHT22;3892;47.794;19.126;2023-05-16T04:24:55;20.60;48.60
7700;DHT22;3892;47.794;19.126;2023-05-16T04:27:24;20.60;48.60
7700;DHT22;3892;47.794;19.126;2023-05-16T04:29:52;20.60;48.60
7700;DHT22;3892;47.794;19.126;2023-05-16T04:32:21;20.60;48.60
7700;DHT22;3892;47.794;19.126;2023-05-16T04:34:51;20.60;48.60
7700;DHT22;3892;47.794;19.126;2023-05-16T04:37:20;20.70;48.60
7700;DHT22;3892;47.794;19.126;2023-05-16T04:39:48;20.70;48.70
7700;DHT22;3892;47.794;19.126;2023-05-16T04:42:17;20.70;48.80
7700;DHT22;3892;47.794;19.126;2023-05-16T04:44:45;20.70;48.80
7700;DHT22;3892;47.794;19.126;2023-05-16T04:47:13;20.70;48.40
7700;DHT22;3892;47.794;19.126;2023-05-16T04:49:41;20.70;48.50
7700;DHT22;3892;47.794;19.126;2023-05-16T04:52:11;20.70;48.50
7700;DHT22;3892;47.794;19.126;2023-05-16T04:54:39;20.60;48.60
7700;DHT22;3892;47.794;19.126;2023-05-16T04:57:07;20.60;48.60
7700;DHT22;3892;47.794;19.126;2023-05-16T04:59:35;20.50;48.50
7700;DHT22;3892;47.794;19.126;2023-05-16T05:02:04;20.50;48.60
7700;DHT22;3892;47.794;19.126;2023-05-16T05:04:33;20.50;48.70
7700;DHT22;3892;47.794;19.126;2023-05-16T05:07:04;20.50;48.60
7700;DHT22;3892;47.794;19.126;2023-05-16T05:09:39;20.50;48.60
7700;DHT22;3892;47.794;19.126;2023-05-16T05:12:09;20.50;48.60
7700;DHT22;3892;47.794;19.126;2023-05-16T05:14:37;20.60;48.60
7700;DHT22;3892;47.794;19.126;2023-05-16T05:17:05;20.60;48.60
7700;DHT22;3892;47.794;19.126;2023-05-16T05:19:33;20.70;48.80
7700;DHT22;3892;47.794;19.126;2023-05-16T05:22:02;20.70;48.70
7700;DHT22;3892;47.794;19.126;2023-05-16T05:24:30;20.70;48.80
7700;DHT22;3892;47.794;19.126;2023-05-16T05:26:59;20.70;48.80
7700;DHT22;3892;47.794;19.126;2023-05-16T05:29:27;20.70;48.90
7700;DHT22;3892;47.794;19.126;2023-05-16T05:31:55;20.80;48.70
7700;DHT22;3892;47.794;19.126;2023-05-16T05:34:23;20.80;48.50
7700;DHT22;3892;47.794;19.126;2023-05-16T05:36:51;20.80;48.30
7700;DHT22;3892;47.794;19.126;2023-05-16T05:39:20;20.80;48.30
7700;DHT22;3892;47.794;19.126;2023-05-16T05:41:48;20.80;48.20
7700;DHT22;3892;47.794;19.126;2023-05-16T05:44:17;20.80;48.20
7700;DHT22;3892;47.794;19.126;2023-05-16T05:46:45;20.80;48.10
7700;DHT22;3892;47.794;19.126;2023-05-16T05:49:14;20.70;48.40
7700;DHT22;3892;47.794;19.126;2023-05-16T05:51:42;20.70;48.60
7700;DHT22;3892;47.794;19.126;2023-05-16T05:54:10;20.60;48.80
7700;DHT22;3892;47.794;19.126;2023-05-16T05:56:39;20.50;48.90
7700;DHT22;3892;47.794;19.126;2023-05-16T05:59:07;20.40;48.90
7700;DHT22;3892;47.794;19.126;2023-05-16T06:01:36;20.40;49.10
7700;DHT22;3892;47.794;19.126;2023-05-16T06:04:04;20.30;49.20
7700;DHT22;3892;47.794;19.126;2023-05-16T06:06:32;20.40;49.60
7700;DHT22;3892;47.794;19.126;2023-05-16T06:09:01;20.40;49.70
7700;DHT22;3892;47.794;19.126;2023-05-16T06:11:29;20.50;49.90
7700;DHT22;3892;47.794;19.126;2023-05-16T06:13:57;20.50;50.00
7700;DHT22;3892;47.794;19.126;2023-05-16T06:16:25;20.50;49.80
7700;DHT22;3892;47.794;19.126;2023-05-16T06:18:55;20.50;49.70
7700;DHT22;3892;47.794;19.126;2023-05-16T06:21:23;20.60;49.90
7700;DHT22;3892;47.794;19.126;2023-05-16T06:23:51;20.60;50.10
7700;DHT22;3892;47.794;19.126;2023-05-16T06:26:19;20.70;50.40
7700;DHT22;3892;47.794;19.126;2023-05-16T06:28:48;20.70;50.60
7700;DHT22;3892;47.794;19.126;2023-05-16T06:31:16;20.70;50.80
7700;DHT22;3892;47.794;19.126;2023-05-16T06:33:44;20.70;50.90
7700;DHT22;3892;47.794;19.126;2023-05-16T06:36:14;20.70;51.00
7700;DHT22;3892;47.794;19.126;2023-05-16T06:38:42;20.80;51.00
7700;DHT22;3892;47.794;19.126;2023-05-16T06:41:10;20.80;50.90
7700;DHT22;3892;47.794;19.126;2023-05-16T06:43:39;20.80;50.70
7700;DHT22;3892;47.794;19.126;2023-05-16T06:46:07;20.80;50.70
7700;DHT22;3892;47.794;19.126;2023-05-16T06:48:35;20.80;50.50
7700;DHT22;3892;47.794;19.126;2023-05-16T06:51:03;20.80;50.70
7700;DHT22;3892;47.794;19.126;2023-05-16T06:53:33;20.80;51.00
7700;DHT22;3892;47.794;19.126;2023-05-16T06:56:01;20.80;50.60
7700;DHT22;3892;47.794;19.126;2023-05-16T06:58:29;20.80;50.50
7700;DHT22;3892;47.794;19.126;2023-05-16T07:00:57;20.80;50.20
7700;DHT22;3892;47.794;19.126;2023-05-16T07:03:25;20.80;50.30
7700;DHT22;3892;47.794;19.126;2023-05-16T07:05:53;20.80;50.40
7700;DHT22;3892;47.794;19.126;2023-05-16T07:08:24;20.80;50.70
7700;DHT22;3892;47.794;19.126;2023-05-16T07:10:53;20.70;50.80
7700;DHT22;3892;47.794;19.126;2023-05-16T07:13:21;20.60;51.00
7700;DHT22;3892;47.794;19.126;2023-05-16T07:15:50;20.60;51.00
7700;DHT22;3892;47.794;19.126;2023-05-16T07:18:18;20.60;51.20
7700;DHT22;3892;47.794;19.126;2023-05-16T07:20:46;20.60;51.30
7700;DHT22;3892;47.794;19.126;2023-05-16T07:23:14;20.60;51.50
7700;DHT22;3892;47.794;19.126;2023-05-16T07:25:42;20.70;51.60
7700;DHT22;3892;47.794;19.126;2023-05-16T07:28:11;20.70;51.40
7700;DHT22;3892;47.794;19.126;2023-05-16T07:30:40;20.80;51.40
7700;DHT22;3892;47.794;19.126;2023-05-16T07:33:08;20.60;51.30
7700;DHT22;3892;47.794;19.126;2023-05-16T07:35:36;20.50;51.20
7700;DHT22;3892;47.794;19.126;2023-05-16T07:38:04;20.50;51.80
7700;DHT22;3892;47.794;19.126;2023-05-16T07:40:33;20.50;51.80
7700;DHT22;3892;47.794;19.126;2023-05-16T07:43:01;20.50;51.60
7700;DHT22;3892;47.794;19.126;2023-05-16T07:45:30;20.40;51.60
7700;DHT22;3892;47.794;19.126;2023-05-16T07:47:58;20.40;52.10
7700;DHT22;3892;47.794;19.126;2023-05-16T07:50:27;20.30;52.20
7700;DHT22;3892;47.794;19.126;2023-05-16T07:52:55;20.20;52.00
7700;DHT22;3892;47.794;19.126;2023-05-16T07:55:23;20.10;52.20
7700;DHT22;3892;47.794;19.126;2023-05-16T07:57:52;20.20;52.20
7700;DHT22;3892;47.794;19.126;2023-05-16T08:00:20;20.20;52.20
7700;DHT22;3892;47.794;19.126;2023-05-16T08:02:50;20.20;52.00
7700;DHT22;3892;47.794;19.126;2023-05-16T08:05:18;20.30;51.90
7700;DHT22;3892;47.794;19.126;2023-05-16T08:07:46;20.40;52.00
7700;DHT22;3892;47.794;19.126;2023-05-16T08:10:14;20.50;52.30
7700;DHT22;3892;47.794;19.126;2023-05-16T08:12:42;20.50;52.40
7700;DHT22;3892;47.794;19.126;2023-05-16T08:15:12;20.50;52.20
7700;DHT22;3892;47.794;19.126;2023-05-16T08:17:40;20.50;52.10
7700;DHT22;3892;47.794;19.126;2023-05-16T08:20:10;20.50;52.20
7700;DHT22;3892;47.794;19.126;2023-05-16T08:22:39;20.50;52.40
7700;DHT22;3892;47.794;19.126;2023-05-16T08:25:07;20.50;52.60
7700;DHT22;3892;47.794;19.126;2023-05-16T08:27:35;20.50;52.70
7700;DHT22;3892;47.794;19.126;2023-05-16T08:30:05;20.50;52.40
7700;DHT22;3892;47.794;19.126;2023-05-16T08:32:33;20.50;52.30
7700;DHT22;3892;47.794;19.126;2023-05-16T08:35:01;20.50;52.50
7700;DHT22;3892;47.794;19.126;2023-05-16T08:37:31;20.60;52.90
7700;DHT22;3892;47.794;19.126;2023-05-16T08:39:59;20.70;53.10
7700;DHT22;3892;47.794;19.126;2023-05-16T08:42:27;20.70;53.20
7700;DHT22;3892;47.794;19.126;2023-05-16T08:44:55;20.70;53.30
7700;DHT22;3892;47.794;19.126;2023-05-16T08:47:26;20.80;53.30
7700;DHT22;3892;47.794;19.126;2023-05-16T08:49:57;20.80;53.30
7700;DHT22;3892;47.794;19.126;2023-05-16T08:52:26;20.80;53.30
7700;DHT22;3892;47.794;19.126;2023-05-16T08:55:00;20.80;53.30
7700;DHT22;3892;47.794;19.126;2023-05-16T08:57:34;20.90;53.50
7700;DHT22;3892;47.794;19.126;2023-05-16T09:00:04;20.90;53.50
7700;DHT22;3892;47.794;19.126;2023-05-16T09:02:37;21.00;53.50
7700;DHT22;3892;47.794;19.126;2023-05-16T09:05:08;21.00;53.60
7700;DHT22;3892;47.794;19.126;2023-05-16T09:07:37;21.00;53.70
7700;DHT22;3892;47.794;19.126;2023-05-16T09:10:08;21.10;53.50
7700;DHT22;3892;47.794;19.126;2023-05-16T09:12:39;21.10;53.60
7700;DHT22;3892;47.794;19.126;2023-05-16T09:15:08;21.10;53.40
7700;DHT22;3892;47.794;19.126;2023-05-16T09:17:38;21.10;53.30
7700;DHT22;3892;47.794;19.126;2023-05-16T09:20:11;21.20;53.30
7700;DHT22;3892;47.794;19.126;2023-05-16T09:22:40;21.20;53.30
7700;DHT22;3892;47.794;19.126;2023-05-16T09:25:18;21.20;53.20
7700;DHT22;3892;47.794;19.126;2023-05-16T09:27:54;21.20;53.10
7700;DHT22;3892;47.794;19.126;2023-05-16T09:30:26;21.20;53.00
7700;DHT22;3892;47.794;19.126;2023-05-16T09:32:56;21.30;53.10
7700;DHT22;3892;47.794;19.126;2023-05-16T09:35:25;21.30;53.00
7700;DHT22;3892;47.794;19.126;2023-05-16T09:37:56;21.30;53.10
7700;DHT22;3892;47.794;19.126;2023-05-16T09:40:26;21.30;53.30
7700;DHT22;3892;47.794;19.126;2023-05-16T09:43:01;21.40;53.60
7700;DHT22;3892;47.794;19.126;2023-05-16T09:45:31;21.30;53.50
7700;DHT22;3892;47.794;19.126;2023-05-16T09:48:04;21.30;53.90
7700;DHT22;3892;47.794;19.126;2023-05-16T09:50:34;21.20;53.90
7700;DHT22;3892;47.794;19.126;2023-05-16T09:53:02;21.10;54.10
7700;DHT22;3892;47.794;19.126;2023-05-16T09:55:32;21.10;53.90
7700;DHT22;3892;47.794;19.126;2023-05-16T09:58:00;21.00;54.10
7700;DHT22;3892;47.794;19.126;2023-05-16T10:00:29;20.90;54.10
7700;DHT22;3892;47.794;19.126;2023-05-16T10:02:58;21.00;54.20
7700;DHT22;3892;47.794;19.126;2023-05-16T10:05:29;21.00;54.20
7700;DHT22;3892;47.794;19.126;2023-05-16T10:07:58;21.00;54.60
7700;DHT22;3892;47.794;19.126;2023-05-16T10:10:26;21.00;54.40
7700;DHT22;3892;47.794;19.126;2023-05-16T10:12:57;21.10;54.90
7700;DHT22;3892;47.794;19.126;2023-05-16T10:15:27;21.10;54.90
7700;DHT22;3892;47.794;19.126;2023-05-16T10:17:56;21.00;54.80
7700;DHT22;3892;47.794;19.126;2023-05-16T10:20:26;21.00;55.00
7700;DHT22;3892;47.794;19.126;2023-05-16T10:22:55;21.00;55.00
7700;DHT22;3892;47.794;19.126;2023-05-16T10:25:28;21.00;55.00
7700;DHT22;3892;47.794;19.126;2023-05-16T10:27:59;20.90;54.70
7700;DHT22;3892;47.794;19.126;2023-05-16T10:30:32;20.80;54.90
7700;DHT22;3892;47.794;19.126;2023-05-16T10:33:01;20.90;55.00
7700;DHT22;3892;47.794;19.126;2023-05-16T10:35:30;20.90;55.10
7700;DHT22;3892;47.794;19.126;2023-05-16T10:37:59;20.90;55.20
7700;DHT22;3892;47.794;19.126;2023-05-16T10:40:28;20.90;55.30
7700;DHT22;3892;47.794;19.126;2023-05-16T10:43:00;21.00;55.20
7700;DHT22;3892;47.794;19.126;2023-05-16T10:45:29;21.00;55.10
7700;DHT22;3892;47.794;19.126;2023-05-16T10:47:59;21.00;55.10
7700;DHT22;3892;47.794;19.126;2023-05-16T10:50:35;21.00;55.10
7700;DHT22;3892;47.794;19.126;2023-05-16T10:53:20;21.10;55.20
7700;DHT22;3892;47.794;19.126;2023-05-16T10:55:50;21.10;55.20
7700;DHT22;3892;47.794;19.126;2023-05-16T10:58:43;21.20;55.50
7700;DHT22;3892;47.794;19.126;2023-05-16T11:01:15;21.20;55.20
7700;DHT22;3892;47.794;19.126;2023-05-16T11:04:03;21.20;55.60
7700;DHT22;3892;47.794;19.126;2023-05-16T11:06:32;21.30;55.50
7700;DHT22;3892;47.794;19.126;2023-05-16T11:09:05;21.30;55.50
7700;DHT22;3892;47.794;19.126;2023-05-16T11:11:40;21.40;55.50
7700;DHT22;3892;47.794;19.126;2023-05-16T11:14:18;21.40;55.50
7700;DHT22;3892;47.794;19.126;2023-05-16T11:16:50;21.50;55.50
7700;DHT22;3892;47.794;19.126;2023-05-16T11:19:30;21.50;55.60
7700;DHT22;3892;47.794;19.126;2023-05-16T11:22:13;21.50;55.50
7700;DHT22;3892;47.794;19.126;2023-05-16T11:24:56;21.50;55.60
7700;DHT22;3892;47.794;19.126;2023-05-16T11:27:26;21.60;55.70
7700;DHT22;3892;47.794;19.126;2023-05-16T11:29:58;21.60;55.90
7700;DHT22;3892;47.794;19.126;2023-05-16T11:32:29;21.60;56.10
7700;DHT22;3892;47.794;19.126;2023-05-16T11:34:58;21.60;56.20
7700;DHT22;3892;47.794;19.126;2023-05-16T11:37:27;21.70;56.20
7700;DHT22;3892;47.794;19.126;2023-05-16T11:39:58;21.70;56.10
7700;DHT22;3892;47.794;19.126;2023-05-16T11:42:28;21.70;56.70
7700;DHT22;3892;47.794;19.126;2023-05-16T11:45:05;21.70;56.90
7700;DHT22;3892;47.794;19.126;2023-05-16T11:47:35;21.70;56.90
7700;DHT22;3892;47.794;19.126;2023-05-16T11:50:05;21.70;56.80
7700;DHT22;3892;47.794;19.126;2023-05-16T11:52:36;21.70;57.10
7700;DHT22;3892;47.794;19.126;2023-05-16T11:55:05;21.70;57.20
7700;DHT22;3892;47.794;19.126;2023-05-16T11:57:33;21.60;57.00
7700;DHT22;3892;47.794;19.126;2023-05-16T12:00:04;21.60;57.10
7700;DHT22;3892;47.794;19.126;2023-05-16T12:02:40;21.60;57.20
7700;DHT22;3892;47.794;19.126;2023-05-16T12:05:10;21.60;57.40
7700;DHT22;3892;47.794;19.126;2023-05-16T12:07:38;21.60;57.90
7700;DHT22;3892;47.794;19.126;2023-05-16T12:10:08;21.60;57.90
7700;DHT22;3892;47.794;19.126;2023-05-16T12:12:38;21.60;58.30
7700;DHT22;3892;47.794;19.126;2023-05-16T12:15:09;21.60;58.00
7700;DHT22;3892;47.794;19.126;2023-05-16T12:17:39;21.70;58.00
7700;DHT22;3892;47.794;19.126;2023-05-16T12:20:09;21.80;57.90
7700;DHT22;3892;47.794;19.126;2023-05-16T12:22:40;21.90;57.20
7700;DHT22;3892;47.794;19.126;2023-05-16T12:25:20;21.90;57.70
7700;DHT22;3892;47.794;19.126;2023-05-16T12:27:49;21.80;57.60
7700;DHT22;3892;47.794;19.126;2023-05-16T12:30:21;21.90;57.50
7700;DHT22;3892;47.794;19.126;2023-05-16T12:32:54;21.80;57.30
7700;DHT22;3892;47.794;19.126;2023-05-16T12:35:23;21.70;57.20
7700;DHT22;3892;47.794;19.126;2023-05-16T12:37:52;21.70;56.80
7700;DHT22;3892;47.794;19.126;2023-05-16T12:40:20;21.70;57.10
7700;DHT22;3892;47.794;19.126;2023-05-16T12:42:49;21.80;57.60
7700;DHT22;3892;47.794;19.126;2023-05-16T12:45:21;21.80;57.60
7700;DHT22;3892;47.794;19.126;2023-05-16T12:47:49;21.80;57.80
7700;DHT22;3892;47.794;19.126;2023-05-16T12:50:18;21.80;57.90
7700;DHT22;3892;47.794;19.126;2023-05-16T12:52:47;21.80;57.60
7700;DHT22;3892;47.794;19.126;2023-05-16T12:55:16;21.80;57.80
7700;DHT22;3892;47.794;19.126;2023-05-16T12:57:46;21.80;58.30
7700;DHT22;3892;47.794;19.126;2023-05-16T13:00:15;21.80;57.90
7700;DHT22;3892;47.794;19.126;2023-05-16T13:02:46;21.70;58.50
7700;DHT22;3892;47.794;19.126;2023-05-16T13:05:15;21.70;57.90
7700;DHT22;3892;47.794;19.126;2023-05-16T13:07:43;21.80;58.40
7700;DHT22;3892;47.794;19.126;2023-05-16T13:10:11;21.80;58.40
7700;DHT22;3892;47.794;19.126;2023-05-16T13:12:40;21.90;58.50
7700;DHT22;3892;47.794;19.126;2023-05-16T13:15:09;21.90;58.60
7700;DHT22;3892;47.794;19.126;2023-05-16T13:17:39;22.00;59.10
7700;DHT22;3892;47.794;19.126;2023-05-16T13:20:09;22.00;59.00
7700;DHT22;3892;47.794;19.126;2023-05-16T13:22:41;22.00;58.50
7700;DHT22;3892;47.794;19.126;2023-05-16T13:25:10;22.00;58.60
7700;DHT22;3892;47.794;19.126;2023-05-16T13:27:38;22.00;58.50
7700;DHT22;3892;47.794;19.126;2023-05-16T13:30:07;22.00;58.40
7700;DHT22;3892;47.794;19.126;2023-05-16T13:32:35;22.00;58.40
7700;DHT22;3892;47.794;19.126;2023-05-16T13:35:04;22.00;57.90
7700;DHT22;3892;47.794;19.126;2023-05-16T13:37:34;22.00;57.60
7700;DHT22;3892;47.794;19.126;2023-05-16T13:40:02;22.00;57.80
7700;DHT22;3892;47.794;19.126;2023-05-16T13:42:31;22.10;57.80
7700;DHT22;3892;47.794;19.126;2023-05-16T13:44:59;22.10;57.60
7700;DHT22;3892;47.794;19.126;2023-05-16T13:47:27;22.10;58.00
7700;DHT22;3892;47.794;19.126;2023-05-16T13:49:55;22.10;58.00
7700;DHT22;3892;47.794;19.126;2023-05-16T13:52:23;22.10;57.90
7700;DHT22;3892;47.794;19.126;2023-05-16T13:54:53;22.20;58.30
7700;DHT22;3892;47.794;19.126;2023-05-16T13:57:21;22.20;58.20
7700;DHT22;3892;47.794;19.126;2023-05-16T13:59:49;22.30;58.70
7700;DHT22;3892;47.794;19.126;2023-05-16T14:02:20;22.30;58.80
7700;DHT22;3892;47.794;19.126;2023-05-16T14:04:48;22.40;58.80
7700;DHT22;3892;47.794;19.126;2023-05-16T14:07:17;22.50;59.10
7700;DHT22;3892;47.794;19.126;2023-05-16T14:09:45;22.50;59.00
7700;DHT22;3892;47.794;19.126;2023-05-16T14:12:14;22.60;59.20
7700;DHT22;3892;47.794;19.126;2023-05-16T14:14:43;22.70;59.50
7700;DHT22;3892;47.794;19.126;2023-05-16T14:17:11;22.80;60.00
7700;DHT22;3892;47.794;19.126;2023-05-16T14:19:39;22.90;59.40
7700;DHT22;3892;47.794;19.126;2023-05-16T14:22:07;22.90;59.70
7700;DHT22;3892;47.794;19.126;2023-05-16T14:24:35;23.00;59.20
7700;DHT22;3892;47.794;19.126;2023-05-16T14:27:04;23.00;58.30
7700;DHT22;3892;47.794;19.126;2023-05-16T14:29:34;23.00;58.50
7700;DHT22;3892;47.794;19.126;2023-05-16T14:32:02;23.00;58.70
7700;DHT22;3892;47.794;19.126;2023-05-16T14:34:30;23.00;58.60
7700;DHT22;3892;47.794;19.126;2023-05-16T14:37:01;23.00;58.20
7700;DHT22;3892;47.794;19.126;2023-05-16T14:39:29;22.90;57.80
7700;DHT22;3892;47.794;19.126;2023-05-16T14:41:57;22.90;57.70
7700;DHT22;3892;47.794;19.126;2023-05-16T14:44:25;22.90;57.70
7700;DHT22;3892;47.794;19.126;2023-05-16T14:46:54;22.90;58.20
7700;DHT22;3892;47.794;19.126;2023-05-16T14:49:23;22.90;57.20
7700;DHT22;3892;47.794;19.126;2023-05-16T14:51:51;22.90;57.50
7700;DHT22;3892;47.794;19.126;2023-05-16T14:54:19;22.80;57.60
7700;DHT22;3892;47.794;19.126;2023-05-16T14:56:47;22.80;57.40
7700;DHT22;3892;47.794;19.126;2023-05-16T14:59:15;22.80;57.30
7700;DHT22;3892;47.794;19.126;2023-05-16T15:01:43;22.80;57.30
7700;DHT22;3892;47.794;19.126;2023-05-16T15:04:12;22.80;57.40
7700;DHT22;3892;47.794;19.126;2023-05-16T15:06:40;22.70;57.40
7700;DHT22;3892;47.794;19.126;2023-05-16T15:09:09;22.60;57.60
7700;DHT22;3892;47.794;19.126;2023-05-16T15:11:37;22.60;57.80
7700;DHT22;3892;47.794;19.126;2023-05-16T15:14:05;22.60;58.60
7700;DHT22;3892;47.794;19.126;2023-05-16T15:16:33;22.60;58.10
7700;DHT22;3892;47.794;19.126;2023-05-16T15:19:01;22.50;58.20
7700;DHT22;3892;47.794;19.126;2023-05-16T15:21:31;22.60;58.00
7700;DHT22;3892;47.794;19.126;2023-05-16T15:23:59;22.60;57.90
7700;DHT22;3892;47.794;19.126;2023-05-16T15:26:27;22.60;57.90
7700;DHT22;3892;47.794;19.126;2023-05-16T15:28:55;22.60;57.80
7700;DHT22;3892;47.794;19.126;2023-05-16T15:31:23;22.70;57.80
7700;DHT22;3892;47.794;19.126;2023-05-16T15:33:52;22.70;57.00
7700;DHT22;3892;47.794;19.126;2023-05-16T15:36:20;22.50;57.20
7700;DHT22;3892;47.794;19.126;2023-05-16T15:38:49;22.50;57.10
7700;DHT22;3892;47.794;19.126;2023-05-16T15:41:19;22.50;56.70
7700;DHT22;3892;47.794;19.126;2023-05-16T15:43:58;22.50;57.00
7700;DHT22;3892;47.794;19.126;2023-05-16T15:46:26;22.50;56.80
7700;DHT22;3892;47.794;19.126;2023-05-16T15:48:56;22.50;56.50
7700;DHT22;3892;47.794;19.126;2023-05-16T15:51:24;22.50;57.40
7700;DHT22;3892;47.794;19.126;2023-05-16T15:53:53;22.40;56.90
7700;DHT22;3892;47.794;19.126;2023-05-16T15:56:21;22.40;57.00
7700;DHT22;3892;47.794;19.126;2023-05-16T15:58:49;22.50;57.20